Time;durP1;ratioP1;P1;durP2;ratioP2;P2;SDS_P1;SDS_P2;PMS_P1;PMS_P2;Temp;Humidity;BMP_temperature;BMP_pressure;BME280_temperature;BME280_humidity;BME280_pressure;Samples;Min_cycle;Max_cycle;Signal;HPM_P1;HPM_P2
2021/06/24 00:05:44;;;;;;;;;;;;;;;;;;5010493;28;19925;-81
2021/06/24 00:08:14;;;;;;;;;;;;;;;;;;5018154;28;20021;-80
2021/06/24 00:10:43;;;;;;;;;;;;;;;;;;5049253;28;20404;-80
2021/06/24 00:13:11;;;;;;;;;;;;;;;;;;5049821;28;19925;-80
2021/06/24 00:15:40;;;;;;;;;;;;;;;;;;5047772;28;20466;-80
2021/06/24 00:18:08;;;;;;;;;;;;;;;;;;5057149;28;19913;-79
2021/06/24 00:20:37;;;;;;;;;;;;;;;;;;5056308;28;19915;-78
2021/06/24 00:23:06;;;;;;;;;;;;;;;;;;5050122;28;19921;-78
2021/06/24 00:25:35;;;;;;;;;;;;;;;;;;5067720;28;19931;-78
2021/06/24 00:28:04;;;;;;;;;;;;;;;;;;5065255;28;19925;-77
2021/06/24 00:30:34;;;;;;;;;;;;;;;;;;5028510;28;19932;-82
2021/06/24 00:33:02;;;;;;;;;;;;;;;;;;5030956;28;19925;-81
2021/06/24 00:35:30;;;;;;;;;;;;;;;;;;5030180;28;20379;-80
2021/06/24 00:37:59;;;;;;;;;;;;;;;;;;5016368;28;19924;-81
2021/06/24 00:40:27;;;;;;;;;;;;;;;;;;5032902;28;20012;-80
2021/06/24 00:42:57;;;;;;;;;;;;;;;;;;5020630;28;20371;-81
2021/06/24 00:45:25;;;;;;;;;;;;;;;;;;5021414;28;19932;-80
2021/06/24 00:47:54;;;;;;;;;;;;;;;;;;5037988;28;20310;-82
2021/06/24 00:50:22;;;;;;;;;;;;;;;;;;5016149;28;19925;-79
2021/06/24 00:52:51;;;;;;;;;;;;;;;;;;5019362;28;19948;-82
2021/06/24 00:55:39;;;;;;;;;;;;;;;;;;5014461;28;19943;-83
2021/06/24 00:58:09;;;;;;;;;;;;;;;;;;5022604;28;19925;-81
2021/06/24 01:00:38;;;;;;;;;;;;;;;;;;5014969;28;19925;-83
2021/06/24 01:03:07;;;;;;;;;;;;;;;;;;5026181;28;19929;-80
2021/06/24 01:05:36;;;;;;;;;;;;;;;;;;5051968;28;19924;-83
2021/06/24 01:08:05;;;;;;;;;;;;;;;;;;5017111;28;19925;-80
2021/06/24 01:10:35;;;;;;;;;;;;;;;;;;5032624;28;20334;-80
2021/06/24 01:13:04;;;;;;;;;;;;;;;;;;5006980;28;19925;-80
2021/06/24 01:15:36;;;;;;;;;;;;;;;;;;5019378;28;20379;-80
2021/06/24 01:18:05;;;;;;;;;;;;;;;;;;5043254;28;19929;-81
2021/06/24 01:20:35;;;;;;;;;;;;;;;;;;5040959;28;19925;-81
2021/06/24 01:23:08;;;;;;;;;;;;;;;;;;5025965;28;19936;-82
2021/06/24 01:25:39;;;;;;;;;;;;;;;;;;5035451;28;19929;-80
2021/06/24 01:28:08;;;;;;;;;;;;;;;;;;5051361;28;20191;-79
2021/06/24 01:30:39;;;;;;;;;;;;;;;;;;5036135;28;19929;-81
2021/06/24 01:33:08;;;;;;;;;;;;;;;;;;5035238;28;19936;-81
2021/06/24 01:35:37;;;;;;;;;;;;;;;;;;5016322;28;19928;-83
2021/06/24 01:38:07;;;;;;;;;;;;;;;;;;5011732;28;19925;-80
2021/06/24 01:40:36;;;;;;;;;;;;;;;;;;5033920;28;19925;-81
2021/06/24 01:43:06;;;;;;;;;;;;;;;;;;5052077;28;19929;-83
2021/06/24 01:45:35;;;;;;;;;;;;;;;;;;5051787;28;19951;-83
2021/06/24 01:48:03;;;;;;;;;;;;;;;;;;5017788;28;19932;-80
2021/06/24 01:50:33;;;;;;;;;;;;;;;;;;5018625;28;19924;-83
2021/06/24 01:53:02;;;;;;;;;;;;;;;;;;5034383;28;20298;-80
2021/06/24 01:55:33;;;;;;;;;;;;;;;;;;5027189;28;20283;-80
2021/06/24 01:58:08;;;;;;;;;;;;;;;;;;5033420;28;20295;-80
2021/06/24 02:01:12;;;;;;;;;;;;;;;;;;5029364;28;19925;-79
2021/06/24 02:03:57;;;;;;;;;;;;;;;;;;5026401;28;19924;-81
2021/06/24 02:06:25;;;;;;;;;;;;;;;;;;5030462;28;20359;-81
2021/06/24 02:09:07;;;;;;;;;;;;;;;;;;5051640;28;19925;-79
2021/06/24 02:11:48;;;;;;;;;;;;;;;;;;5042662;28;19932;-81
2021/06/24 02:14:21;;;;;;;;;;;;;;;;;;5036260;28;20421;-80
2021/06/24 02:16:49;;;;;;;;;;;;;;;;;;5053585;28;20426;-80
2021/06/24 02:19:24;;;;;;;;;;;;;;;;;;5017253;28;19925;-80
2021/06/24 02:22:05;;;;;;;;;;;;;;;;;;5031515;28;19936;-79
2021/06/24 02:24:39;;;;;;;;;;;;;;;;;;5013051;28;20034;-80
2021/06/24 02:27:09;;;;;;;;;;;;;;;;;;5020769;28;19931;-77
2021/06/24 02:29:57;;;;;;;;;;;;;;;;;;5042217;28;19925;-79
2021/06/24 02:32:26;;;;;;;;;;;;;;;;;;5020408;28;19932;-76
2021/06/24 02:35:05;;;;;;;;;;;;;;;;;;5027173;28;19924;-80
2021/06/24 02:37:50;;;;;;;;;;;;;;;;;;5027200;28;19935;-79
2021/06/24 02:40:27;;;;;;;;;;;;;;;;;;5031792;28;19925;-81
2021/06/24 02:42:56;;;;;;;;;;;;;;;;;;5013862;28;20295;-80
2021/06/24 02:45:29;;;;;;;;;;;;;;;;;;5011800;28;19925;-78
2021/06/24 02:47:58;;;;;;;;;;;;;;;;;;5021654;28;19929;-79
2021/06/24 02:50:26;;;;;;;;;;;;;;;;;;5003886;28;20290;-78
2021/06/24 02:53:01;;;;;;;;;;;;;;;;;;5046115;28;19943;-79
2021/06/24 02:55:31;;;;;;;;;;;;;;;;;;5042278;28;19943;-78
2021/06/24 02:58:00;;;;;;;;;;;;;;;;;;5065742;28;20437;-78
2021/06/24 03:00:51;;;;;;;;;;;;;;;;;;5010659;28;19932;-79
2021/06/24 03:03:32;;;;;;;;;;;;;;;;;;5008172;28;19932;-79
2021/06/24 03:06:08;;;;;;;;;;;;;;;;;;5008185;28;20318;-77
2021/06/24 03:08:36;;;;;;;;;;;;;;;;;;5008819;28;19947;-81
2021/06/24 03:11:06;;;;;;;;;;;;;;;;;;5011998;28;19940;-80
2021/06/24 03:13:42;;;;;;;;;;;;;;;;;;5028388;28;19929;-79
2021/06/24 03:16:12;;;;;;;;;;;;;;;;;;5031989;28;20192;-80
2021/06/24 03:18:40;;;;;;;;;;;;;;;;;;5044852;28;20413;-81
2021/06/24 03:21:11;;;;;;;;;;;;;;;;;;5040425;28;20008;-83
2021/06/24 03:23:39;;;;;;;;;;;;;;;;;;5029935;28;19925;-77
2021/06/24 03:26:07;;;;;;;;;;;;;;;;;;5028174;28;19924;-80
2021/06/24 03:28:36;;;;;;;;;;;;;;;;;;5010738;28;19925;-78
2021/06/24 03:31:18;;;;;;;;;;;;;;;;;;5012288;28;19930;-80
2021/06/24 03:33:48;;;;;;;;;;;;;;;;;;5030480;28;19925;-79
2021/06/24 03:36:18;;;;;;;;;;;;;;;;;;5016913;28;20398;-78
2021/06/24 03:38:47;;;;;;;;;;;;;;;;;;5026774;28;20260;-78
2021/06/24 03:41:24;;;;;;;;;;;;;;;;;;5013439;28;19932;-82
2021/06/24 03:43:56;;;;;;;;;;;;;;;;;;5009260;28;20280;-80
2021/06/24 03:46:26;;;;;;;;;;;;;;;;;;5011794;28;20008;-82
2021/06/24 03:48:56;;;;;;;;;;;;;;;;;;5019134;28;19936;-81
2021/06/24 03:51:24;;;;;;;;;;;;;;;;;;5032953;28;19932;-81
2021/06/24 03:53:57;;;;;;;;;;;;;;;;;;5016778;28;20409;-82
2021/06/24 03:56:28;;;;;;;;;;;;;;;;;;5015437;28;20099;-82
2021/06/24 03:59:19;;;;;;;;;;;;;;;;;;5035920;28;19932;-82
2021/06/24 04:01:55;;;;;;;;;;;;;;;;;;5027248;28;19924;-80
2021/06/24 04:04:24;;;;;;;;;;;;;;;;;;5030184;28;19932;-80
2021/06/24 04:06:56;;;;;;;;;;;;;;;;;;5037378;28;19925;-77
2021/06/24 04:09:24;;;;;;;;;;;;;;;;;;5053599;28;19925;-78
2021/06/24 04:11:53;;;;;;;;;;;;;;;;;;5029020;28;20288;-79
2021/06/24 04:14:40;;;;;;;;;;;;;;;;;;5036624;28;19999;-79
2021/06/24 04:17:30;;;;;;;;;;;;;;;;;;5028351;28;19925;-79
2021/06/24 04:19:59;;;;;;;;;;;;;;;;;;5028544;28;19925;-78
2021/06/24 04:22:31;;;;;;;;;;;;;;;;;;5015295;28;19933;-78
2021/06/24 04:25:14;;;;;;;;;;;;;;;;;;5052928;28;19931;-77
2021/06/24 04:27:49;;;;;;;;;;;;;;;;;;5017338;28;19925;-80
2021/06/24 04:30:20;;;;;;;;;;;;;;;;;;5030118;28;19925;-77
2021/06/24 04:32:52;;;;;;;;;;;;;;;;;;5036425;28;19939;-79
2021/06/24 04:35:28;;;;;;;;;;;;;;;;;;5025225;28;20286;-79
2021/06/24 04:38:00;;;;;;;;;;;;;;;;;;5043337;28;20303;-79
2021/06/24 04:40:29;;;;;;;;;;;;;;;;;;5016612;28;20405;-80
2021/06/24 04:42:58;;;;;;;;;;;;;;;;;;5036645;28;19925;-78
2021/06/24 04:45:30;;;;;;;;;;;;;;;;;;5031165;28;20322;-80
2021/06/24 04:48:15;;;;;;;;;;;;;;;;;;5035587;28;19936;-80
2021/06/24 04:50:45;;;;;;;;;;;;;;;;;;5016767;28;19929;-80
2021/06/24 04:53:14;;;;;;;;;;;;;;;;;;5019712;28;19932;-80
2021/06/24 04:55:56;;;;;;;;;;;;;;;;;;5021918;28;19933;-80
2021/06/24 04:58:27;;;;;;;;;;;;;;;;;;5027303;28;19925;-81
2021/06/24 05:01:14;;;;;;;;;;;;;;;;;;5043599;28;19925;-80
2021/06/24 05:04:02;;;;;;;;;;;;;;;;;;5038916;28;19925;-82
2021/06/24 05:06:30;;;;;;;;;;;;;;;;;;5021019;28;20111;-80
2021/06/24 05:08:59;;;;;;;;;;;;;;;;;;5046975;28;19925;-79
2021/06/24 05:11:27;;;;;;;;;;;;;;;;;;5010252;28;19956;-79
2021/06/24 05:13:56;;;;;;;;;;;;;;;;;;5037512;28;19925;-79
2021/06/24 05:16:24;;;;;;;;;;;;;;;;;;5032313;28;19925;-80
2021/06/24 05:18:52;;;;;;;;;;;;;;;;;;5028397;28;19925;-82
2021/06/24 05:21:22;;;;;;;;;;;;;;;;;;5015941;28;19928;-80
2021/06/24 05:23:50;;;;;;;;;;;;;;;;;;5048575;28;19935;-80
2021/06/24 05:26:19;;;;;;;;;;;;;;;;;;5018227;28;19948;-80
2021/06/24 05:28:47;;;;;;;;;;;;;;;;;;5003724;28;20211;-80
2021/06/24 05:31:15;;;;;;;;;;;;;;;;;;5036019;28;19925;-79
2021/06/24 05:33:44;;;;;;;;;;;;;;;;;;5035154;28;19929;-79
2021/06/24 05:36:12;;;;;;;;;;;;;;;;;;5006625;28;19929;-78
2021/06/24 05:38:42;;;;;;;;;;;;;;;;;;5049612;28;19925;-80
2021/06/24 05:41:10;;;;;;;;;;;;;;;;;;5034837;28;20303;-79
2021/06/24 05:43:38;;;;;;;;;;;;;;;;;;5020306;28;19925;-80
2021/06/24 05:46:07;;;;;;;;;;;;;;;;;;5036588;28;19936;-80
2021/06/24 05:48:35;;;;;;;;;;;;;;;;;;5019496;28;20283;-80
2021/06/24 05:51:04;;;;;;;;;;;;;;;;;;5034090;28;19925;-81
2021/06/24 05:53:32;;;;;;;;;;;;;;;;;;5034523;28;19932;-81
2021/06/24 05:56:02;;;;;;;;;;;;;;;;;;5034395;28;19924;-80
2021/06/24 05:58:30;;;;;;;;;;;;;;;;;;5027295;28;20330;-80
2021/06/24 06:00:59;;;;;;;;;;;;;;;;;;5022388;28;20403;-80
2021/06/24 06:03:38;;;;;;;;;;;;;;;;;;5029235;28;19925;-80
2021/06/24 06:06:13;;;;;;;;;;;;;;;;;;5004430;28;19933;-79
2021/06/24 06:08:43;;;;;;;;;;;;;;;;;;5004621;28;19933;-79
2021/06/24 06:11:13;;;;;;;;;;;;;;;;;;5027832;28;19925;-80
2021/06/24 06:13:41;;;;;;;;;;;;;;;;;;5024982;28;19932;-80
2021/06/24 06:16:09;;;;;;;;;;;;;;;;;;5040721;28;19932;-78
2021/06/24 06:18:38;;;;;;;;;;;;;;;;;;5020584;28;19932;-83
2021/06/24 06:21:06;;;;;;;;;;;;;;;;;;5023796;28;20387;-82
2021/06/24 06:23:34;;;;;;;;;;;;;;;;;;5043194;28;19928;-81
2021/06/24 06:26:03;;;;;;;;;;;;;;;;;;5004242;28;20230;-82
2021/06/24 06:28:33;;;;;;;;;;;;;;;;;;5008414;28;19933;-79
2021/06/24 06:31:01;;;;;;;;;;;;;;;;;;5010067;28;19925;-81
2021/06/24 06:33:29;;;;;;;;;;;;;;;;;;5004981;28;20328;-81
2021/06/24 06:35:58;;;;;;;;;;;;;;;;;;5046840;28;19932;-80
2021/06/24 06:38:26;;;;;;;;;;;;;;;;;;5041093;28;19929;-83
2021/06/24 06:40:54;;;;;;;;;;;;;;;;;;5021685;28;19929;-83
2021/06/24 06:43:23;;;;;;;;;;;;;;;;;;5039689;28;19932;-83
2021/06/24 06:45:53;;;;;;;;;;;;;;;;;;5027516;28;19925;-80
2021/06/24 06:48:21;;;;;;;;;;;;;;;;;;5009116;28;19925;-82
2021/06/24 06:50:49;;;;;;;;;;;;;;;;;;5047727;28;19924;-83
2021/06/24 06:53:17;;;;;;;;;;;;;;;;;;5023819;28;20421;-83
2021/06/24 06:55:46;;;;;;;;;;;;;;;;;;5013021;28;20248;-82
2021/06/24 06:58:14;;;;;;;;;;;;;;;;;;5025769;28;19932;-81
2021/06/24 07:00:43;;;;;;;;;;;;;;;;;;5052010;28;19925;-78
2021/06/24 07:03:14;;;;;;;;;;;;;;;;;;5039758;28;19919;-78
2021/06/24 07:05:42;;;;;;;;;;;;;;;;;;5047401;28;19932;-80
2021/06/24 07:08:11;;;;;;;;;;;;;;;;;;5017285;28;19929;-77
2021/06/24 07:10:39;;;;;;;;;;;;;;;;;;5039318;28;19940;-80
2021/06/24 07:13:07;;;;;;;;;;;;;;;;;;5033602;28;19925;-79
2021/06/24 07:15:36;;;;;;;;;;;;;;;;;;5040161;28;20486;-80
2021/06/24 07:18:06;;;;;;;;;;;;;;;;;;5011490;28;19936;-80
2021/06/24 07:20:36;;;;;;;;;;;;;;;;;;5035440;28;19929;-77
2021/06/24 07:23:05;;;;;;;;;;;;;;;;;;5029169;28;19925;-79
2021/06/24 07:25:33;;;;;;;;;;;;;;;;;;5009201;28;19925;-76
2021/06/24 07:28:01;;;;;;;;;;;;;;;;;;5025957;28;19932;-79
2021/06/24 07:30:30;;;;;;;;;;;;;;;;;;5044463;28;20295;-79
2021/06/24 07:32:58;;;;;;;;;;;;;;;;;;5027605;28;19925;-78
2021/06/24 07:35:26;;;;;;;;;;;;;;;;;;5025793;28;20379;-77
2021/06/24 07:37:56;;;;;;;;;;;;;;;;;;5050016;28;19924;-79
2021/06/24 07:40:25;;;;;;;;;;;;;;;;;;5045027;28;20273;-79
2021/06/24 07:42:53;;;;;;;;;;;;;;;;;;5011620;28;19935;-80
2021/06/24 07:45:21;;;;;;;;;;;;;;;;;;5011121;28;19925;-79
2021/06/24 07:47:50;;;;;;;;;;;;;;;;;;5035365;28;19925;-78
2021/06/24 07:50:21;;;;;;;;;;;;;;;;;;5017387;28;19948;-79
2021/06/24 07:52:49;;;;;;;;;;;;;;;;;;5035801;28;19925;-79
2021/06/24 07:55:19;;;;;;;;;;;;;;;;;;5052530;28;20398;-79
2021/06/24 07:57:47;;;;;;;;;;;;;;;;;;5045777;28;19936;-79
2021/06/24 08:00:16;;;;;;;;;;;;;;;;;;5034874;28;20314;-78
2021/06/24 08:02:45;;;;;;;;;;;;;;;;;;5030074;28;19925;-79
2021/06/24 08:05:18;;;;;;;;;;;;;;;;;;5025392;28;19943;-79
2021/06/24 08:07:48;;;;;;;;;;;;;;;;;;5035703;28;19924;-79
2021/06/24 08:10:19;;;;;;;;;;;;;;;;;;5029123;28;19924;-79
2021/06/24 08:12:49;;;;;;;;;;;;;;;;;;5043080;28;19932;-78
2021/06/24 08:15:18;;;;;;;;;;;;;;;;;;5033559;28;19935;-78
2021/06/24 08:17:46;;;;;;;;;;;;;;;;;;5046100;28;20399;-79
2021/06/24 08:20:15;;;;;;;;;;;;;;;;;;5044703;28;19941;-77
2021/06/24 08:22:44;;;;;;;;;;;;;;;;;;5026647;28;19929;-78
2021/06/24 08:25:13;;;;;;;;;;;;;;;;;;5030294;28;19929;-79
2021/06/24 08:27:43;;;;;;;;;;;;;;;;;;5046047;28;19932;-78
2021/06/24 08:30:12;;;;;;;;;;;;;;;;;;5038824;28;19925;-78
2021/06/24 08:32:41;;;;;;;;;;;;;;;;;;5029647;28;19932;-78
2021/06/24 08:35:10;;;;;;;;;;;;;;;;;;5018464;28;20812;-78
2021/06/24 08:37:39;;;;;;;;;;;;;;;;;;5035218;28;19928;-77
2021/06/24 08:40:08;;;;;;;;;;;;;;;;;;5047884;28;19932;-76
2021/06/24 08:42:38;;;;;;;;;;;;;;;;;;5036192;28;19920;-77
2021/06/24 08:45:11;;;;;;;;;;;;;;;;;;5053245;28;19925;-79
2021/06/24 08:47:41;;;;;;;;;;;;;;;;;;5047073;28;19935;-80
2021/06/24 08:50:10;;;;;;;;;;;;;;;;;;5048874;28;19935;-79
2021/06/24 08:52:43;;;;;;;;;;;;;;;;;;5033051;28;19925;-79
2021/06/24 08:55:12;;;;;;;;;;;;;;;;;;5015756;28;19924;-78
2021/06/24 08:57:43;;;;;;;;;;;;;;;;;;5016102;28;19925;-79
2021/06/24 09:00:14;;;;;;;;;;;;;;;;;;5018437;28;19935;-79
2021/06/24 09:02:46;;;;;;;;;;;;;;;;;;5011914;28;19932;-78
2021/06/24 09:05:16;;;;;;;;;;;;;;;;;;5008890;28;19925;-79
2021/06/24 09:07:48;;;;;;;;;;;;;;;;;;5051426;28;20290;-77
2021/06/24 09:10:19;;;;;;;;;;;;;;;;;;5014610;28;19929;-79
2021/06/24 09:12:51;;;;;;;;;;;;;;;;;;5032342;28;19929;-78
2021/06/24 09:15:22;;;;;;;;;;;;;;;;;;5025895;28;19932;-78
2021/06/24 09:17:52;;;;;;;;;;;;;;;;;;5013741;28;19925;-77
2021/06/24 09:20:30;;;;;;;;;;;;;;;;;;5014881;28;20387;-78
2021/06/24 09:23:16;;;;;;;;;;;;;;;;;;5096119;27;19948;-80
2021/06/24 09:25:47;;;;;;;;;;;;;;;;;;5046304;28;19926;-79
2021/06/24 09:28:16;;;;;;;;;;;;;;;;;;5044188;28;19932;-79
2021/06/24 09:30:45;;;;;;;;;;;;;;;;;;5050420;27;19924;-79
2021/06/24 09:33:14;;;;;;;;;;;;;;;;;;5031529;28;19936;-79
2021/06/24 09:35:45;;;;;;;;;;;;;;;;;;5031295;28;19925;-80
2021/06/24 09:38:18;;;;;;;;;;;;;;;;;;5046529;27;19925;-80
2021/06/24 09:40:52;;;;;;;;;;;;;;;;;;5012038;28;19929;-79
2021/06/24 09:43:34;;;;;;;;;;;;;;;;;;5020906;27;19936;-79
2021/06/24 09:46:12;;;;;;;;;;;;;;;;;;5055726;27;19936;-79
2021/06/24 09:48:53;;;;;;;;;;;;;;;;;;5049104;28;19932;-79
2021/06/24 09:51:24;;;;;;;;;;;;;;;;;;5042243;28;20390;-80
2021/06/24 09:53:58;;;;;;;;;;;;;;;;;;5040351;27;19932;-78
2021/06/24 09:56:44;;;;;;;;;;;;;;;;;;5111592;27;19932;-79
2021/06/24 09:59:16;;;;;;;;;;;;;;;;;;5027949;28;19926;-80
2021/06/24 10:01:52;;;;;;;;;;;;;;;;;;5043575;28;19936;-80
2021/06/24 10:04:21;;;;;;;;;;;;;;;;;;5030868;28;19925;-79
2021/06/24 10:06:51;;;;;;;;;;;;;;;;;;5023729;28;19932;-79
2021/06/24 10:09:21;;;;;;;;;;;;;;;;;;5035019;28;20465;-79
2021/06/24 10:11:49;;;;;;;;;;;;;;;;;;5019827;28;19936;-79
2021/06/24 10:14:19;;;;;;;;;;;;;;;;;;5029291;28;19925;-80
2021/06/24 10:16:49;;;;;;;;;;;;;;;;;;5029283;28;19926;-80
2021/06/24 10:19:18;;;;;;;;;;;;;;;;;;5045953;28;19925;-81
2021/06/24 10:22:09;;;;;;;;;;;;;;;;;;5023363;27;19925;-80
2021/06/24 10:24:51;;;;;;;;;;;;;;;;;;5025791;27;20440;-81
2021/06/24 10:27:27;;;;;;;;;;;;;;;;;;5024382;28;19929;-78
2021/06/24 10:30:13;;;;;;;;;;;;;;;;;;5028469;28;19929;-80
2021/06/24 10:32:55;;;;;;;;;;;;;;;;;;5041434;27;20314;-80
2021/06/24 10:35:38;;;;;;;;;;;;;;;;;;5032610;28;19925;-80
2021/06/24 10:38:48;;;;;;;;;;;;;;;;;;5017876;28;19995;-80
2021/06/24 10:41:26;;;;;;;;;;;;;;;;;;5010884;28;19925;-80
2021/06/24 10:43:59;;;;;;;;;;;;;;;;;;5030969;28;19948;-80
2021/06/24 10:46:39;;;;;;;;;;;;;;;;;;5017931;28;20398;-79
2021/06/24 10:49:30;;;;;;;;;;;;;;;;;;5026736;28;19925;-81
2021/06/24 10:52:18;;;;;;;;;;;;;;;;;;5023149;28;19925;-80
2021/06/24 10:54:52;;;;;;;;;;;;;;;;;;5045024;28;19932;-80
2021/06/24 10:57:48;;;;;;;;;;;;;;;;;;5016003;28;19934;-78
2021/06/24 11:00:36;;;;;;;;;;;;;;;;;;5041957;28;20476;-77
2021/06/24 11:03:05;;;;;;;;;;;;;;;;;;5031159;28;19926;-81
2021/06/24 11:05:34;;;;;;;;;;;;;;;;;;5030856;28;19929;-81
2021/06/24 11:08:08;;;;;;;;;;;;;;;;;;5029890;28;20276;-81
2021/06/24 11:10:52;;;;;;;;;;;;;;;;;;5042743;28;19939;-80
2021/06/24 11:13:40;;;;;;;;;;;;;;;;;;5028648;28;20421;-81
2021/06/24 11:16:22;;;;;;;;;;;;;;;;;;5014710;28;19932;-81
2021/06/24 11:18:55;;;;;;;;;;;;;;;;;;5031964;28;19932;-81
2021/06/24 11:21:47;;;;;;;;;;;;;;;;;;5009622;28;19930;-81
2021/06/24 11:24:25;;;;;;;;;;;;;;;;;;5015351;28;20378;-81
2021/06/24 11:26:54;;;;;;;;;;;;;;;;;;5010554;28;19926;-81
2021/06/24 11:29:39;;;;;;;;;;;;;;;;;;5039571;28;19926;-82
2021/06/24 11:32:10;;;;;;;;;;;;;;;;;;5116187;27;19925;-81
2021/06/24 11:34:44;;;;;;;;;;;;;;;;;;5026839;28;19913;-81
2021/06/24 11:37:14;;;;;;;;;;;;;;;;;;5033246;28;19948;-81
2021/06/24 11:39:43;;;;;;;;;;;;;;;;;;5032987;28;19925;-81
2021/06/24 11:42:12;;;;;;;;;;;;;;;;;;5053286;27;19925;-81
2021/06/24 11:44:42;;;;;;;;;;;;;;;;;;5058236;28;19935;-81
2021/06/24 11:47:12;;;;;;;;;;;;;;;;;;5022688;28;19925;-82
2021/06/24 12:04:15;;;;;;;;;;;;;;;;;;5055346;28;19925;-82
2021/06/24 12:06:49;;;;;;;;;;;;;;;;;;5030371;28;19932;-81
2021/06/24 12:09:27;;;;;;;;;;;;;;;;;;5012702;28;19925;-82
2021/06/24 12:12:04;;;;;;;;;;;;;;;;;;5014477;28;19929;-82
2021/06/24 12:15:15;;;;;;;;;;;;;;;;;;5024986;28;20421;-81
2021/06/24 12:18:29;;;;;;;;;;;;;;;;;;;;;
2021/06/24 12:21:28;;;;;;;;;;;;;;;;;;5095555;27;19925;-82
2021/06/24 12:27:45;;;;;;;;;;;;;;;;;;5016666;28;19932;-82
2021/06/24 12:33:05;;;;;;;;;;;;;;;;;;5176529;27;19945;-86
2021/06/24 12:35:34;;;;;;;;;;;;;;;;;;5142094;27;19924;-88
2021/06/24 12:38:03;;;;;;;;;;;;;;;;;;5140241;28;19931;-86
2021/06/24 12:40:32;;;;;;;;;;;;;;;;;;5107681;28;20260;-88
2021/06/24 12:43:01;;;;;;;;;;;;;;;;;;5119105;28;19924;-86
2021/06/24 12:45:46;;;;;;;;;;;;;;;;;;5107689;28;19932;-86
2021/06/24 12:48:26;;;;;;;;;;;;;;;;;;5108022;28;19928;-85
2021/06/24 12:50:54;;;;;;;;;;;;;;;;;;5132724;28;19935;-89
2021/06/24 12:53:33;;;;;;;;;;;;;;;;;;5104310;28;19931;-86
2021/06/24 12:56:02;;;;;;;;;;;;;;;;;;5097490;28;19934;-89
2021/06/24 12:58:34;;;;;;;;;;;;;;;;;;5104246;28;19924;-87
2021/06/24 13:01:11;;;;;;;;;;;;;;;;;;5086320;28;20431;-85
2021/06/24 13:03:42;;;;;;;;;;;;;;;;;;5096799;28;19924;-88
2021/06/24 13:06:12;;;;;;;;;;;;;;;;;;5120503;28;19929;-86
2021/06/24 13:08:50;;;;;;;;;;;;;;;;;;5099164;28;19924;-87
2021/06/24 13:11:20;;;;;;;;;;;;;;;;;;5151995;27;19924;-86
2021/06/24 13:13:53;;;;;;;;;;;;;;;;;;5101578;28;19990;-88
2021/06/24 13:16:22;;;;;;;;;;;;;;;;;;5107475;28;19924;-87
2021/06/24 13:18:53;;;;;;;;;;;;;;;;;;5138710;27;19929;-86
2021/06/24 13:21:22;;;;;;;;;;;;;;;;;;5142969;27;19924;-85
2021/06/24 13:23:51;;;;;;;;;;;;;;;;;;5132476;27;19935;-85
2021/06/24 13:26:20;;;;;;;;;;;;;;;;;;5139615;27;19924;-87
2021/06/24 13:28:57;;;;;;;;;;;;;;;;;;5111806;28;20156;-87
2021/06/24 13:31:26;;;;;;;;;;;;;;;;;;5138371;27;19931;-89
2021/06/24 13:34:01;;;;;;;;;;;;;;;;;;5102063;28;19924;-86
2021/06/24 13:36:31;;;;;;;;;;;;;;;;;;5102252;28;19924;-87
2021/06/24 13:39:00;;;;;;;;;;;;;;;;;;5095783;28;19938;-87
2021/06/24 13:41:30;;;;;;;;;;;;;;;;;;5100334;28;19935;-88
2021/06/24 13:44:09;;;;;;;;;;;;;;;;;;5096106;28;19924;-90
2021/06/24 13:46:37;;;;;;;;;;;;;;;;;;5107561;28;19912;-88
2021/06/24 13:49:07;;;;;;;;;;;;;;;;;;5093827;28;19928;-87
2021/06/24 13:51:36;;;;;;;;;;;;;;;;;;5138942;27;19920;-92
2021/06/24 13:54:05;;;;;;;;;;;;;;;;;;5134791;28;19915;-93
2021/06/24 13:56:35;;;;;;;;;;;;;;;;;;5111174;28;19943;-94
2021/06/24 13:59:03;;;;;;;;;;;;;;;;;;5090340;28;19909;-93
2021/06/24 14:01:31;;;;;;;;;;;;;;;;;;5106062;28;19913;-93
2021/06/24 14:03:59;;;;;;;;;;;;;;;;;;5109135;28;19918;-92
2021/06/24 14:06:35;;;;;;;;;;;;;;;;;;5119574;28;19918;-93
2021/06/24 14:09:05;;;;;;;;;;;;;;;;;;5099049;28;19923;-93
2021/06/24 14:11:34;;;;;;;;;;;;;;;;;;5096318;28;19914;-93
2021/06/24 14:14:03;;;;;;;;;;;;;;;;;;5098985;28;19934;-94
2021/06/24 14:16:32;;;;;;;;;;;;;;;;;;5091412;28;19924;-92
2021/06/24 14:19:16;;;;;;;;;;;;;;;;;;5095419;28;19927;-89
2021/06/24 14:21:46;;;;;;;;;;;;;;;;;;5096610;28;19924;-87
2021/06/24 14:24:15;;;;;;;;;;;;;;;;;;5113060;28;19925;-86
2021/06/24 14:26:43;;;;;;;;;;;;;;;;;;5107920;28;19916;-93
2021/06/24 14:29:12;;;;;;;;;;;;;;;;;;5122482;28;19908;-93
2021/06/24 14:31:41;;;;;;;;;;;;;;;;;;5111726;28;19911;-95
2021/06/24 14:34:10;;;;;;;;;;;;;;;;;;5093354;28;19915;-95
2021/06/24 14:36:38;;;;;;;;;;;;;;;;;;5117008;28;19912;-93
2021/06/24 14:39:08;;;;;;;;;;;;;;;;;;5107878;28;19912;-91
2021/06/24 14:41:37;;;;;;;;;;;;;;;;;;5102662;28;19930;-88
2021/06/24 14:44:05;;;;;;;;;;;;;;;;;;5085969;28;19932;-88
2021/06/24 14:46:34;;;;;;;;;;;;;;;;;;5087013;28;19912;-88
2021/06/24 14:49:03;;;;;;;;;;;;;;;;;;5085625;28;19931;-89
2021/06/24 14:51:32;;;;;;;;;;;;;;;;;;5105718;28;19925;-89
2021/06/24 14:54:07;;;;;;;;;;;;;;;;;;5085718;28;19924;-89
2021/06/24 14:56:37;;;;;;;;;;;;;;;;;;5083552;28;19924;-86
2021/06/24 14:59:07;;;;;;;;;;;;;;;;;;5083655;28;19925;-86
2021/06/24 15:01:35;;;;;;;;;;;;;;;;;;5098790;28;19924;-89
2021/06/24 15:04:05;;;;;;;;;;;;;;;;;;5103167;28;19924;-90
2021/06/24 15:06:33;;;;;;;;;;;;;;;;;;5096294;28;19924;-88
2021/06/24 15:09:02;;;;;;;;;;;;;;;;;;5080092;28;19928;-88
2021/06/24 15:11:31;;;;;;;;;;;;;;;;;;5088346;28;19947;-86
2021/06/24 15:14:02;;;;;;;;;;;;;;;;;;5078518;28;20006;-89
2021/06/24 15:16:31;;;;;;;;;;;;;;;;;;5076312;28;19928;-88
2021/06/24 15:19:01;;;;;;;;;;;;;;;;;;5101458;28;19924;-89
2021/06/24 15:21:29;;;;;;;;;;;;;;;;;;5091446;28;20388;-90
2021/06/24 15:23:58;;;;;;;;;;;;;;;;;;5065213;28;19929;-89
2021/06/24 15:26:26;;;;;;;;;;;;;;;;;;5079637;28;19924;-87
2021/06/24 15:28:54;;;;;;;;;;;;;;;;;;5091257;28;19924;-87
2021/06/24 15:31:24;;;;;;;;;;;;;;;;;;5096409;28;19924;-88
2021/06/24 15:33:52;;;;;;;;;;;;;;;;;;5070975;28;19924;-87
2021/06/24 15:36:22;;;;;;;;;;;;;;;;;;5060573;28;19924;-89
2021/06/24 15:38:50;;;;;;;;;;;;;;;;;;5105453;28;19931;-88
2021/06/24 15:41:18;;;;;;;;;;;;;;;;;;5085003;28;19924;-88
2021/06/24 15:43:46;;;;;;;;;;;;;;;;;;5070220;28;19924;-88
2021/06/24 15:46:15;;;;;;;;;;;;;;;;;;5069722;28;19924;-89
2021/06/24 15:48:45;;;;;;;;;;;;;;;;;;5075559;28;20411;-89
2021/06/24 15:51:15;;;;;;;;;;;;;;;;;;5078428;28;19912;-90
2021/06/24 15:53:43;;;;;;;;;;;;;;;;;;5096426;28;21335;-92
2021/06/24 15:56:12;;;;;;;;;;;;;;;;;;5118470;28;19918;-92
2021/06/24 15:58:40;;;;;;;;;;;;;;;;;;5090382;28;19929;-90
2021/06/24 16:01:08;;;;;;;;;;;;;;;;;;5113374;28;19915;-91
2021/06/24 16:03:37;;;;;;;;;;;;;;;;;;5113437;28;19919;-93
2021/06/24 16:06:06;;;;;;;;;;;;;;;;;;5106473;28;19924;-87
2021/06/24 16:08:36;;;;;;;;;;;;;;;;;;5077906;28;19924;-89
2021/06/24 16:11:05;;;;;;;;;;;;;;;;;;5085059;28;19924;-88
2021/06/24 16:13:35;;;;;;;;;;;;;;;;;;5092865;28;19925;-88
2021/06/24 16:16:04;;;;;;;;;;;;;;;;;;5099667;28;19932;-91
2021/06/24 16:18:32;;;;;;;;;;;;;;;;;;5088989;28;19924;-91
2021/06/24 16:21:01;;;;;;;;;;;;;;;;;;5077426;28;19931;-91
2021/06/24 16:23:31;;;;;;;;;;;;;;;;;;5122618;27;19935;-88
2021/06/24 16:26:00;;;;;;;;;;;;;;;;;;5069699;28;19943;-90
2021/06/24 16:28:29;;;;;;;;;;;;;;;;;;5078454;28;19928;-90
2021/06/24 16:30:57;;;;;;;;;;;;;;;;;;5101494;28;19923;-89
2021/06/24 16:33:25;;;;;;;;;;;;;;;;;;5099862;28;19946;-89
2021/06/24 16:35:54;;;;;;;;;;;;;;;;;;5112839;28;19930;-88
2021/06/24 16:38:24;;;;;;;;;;;;;;;;;;5078824;28;19924;-89
2021/06/24 16:40:54;;;;;;;;;;;;;;;;;;5094149;28;19931;-90
2021/06/24 16:43:23;;;;;;;;;;;;;;;;;;5112396;28;19924;-90
2021/06/24 16:45:51;;;;;;;;;;;;;;;;;;5092564;28;19985;-89
2021/06/24 16:48:20;;;;;;;;;;;;;;;;;;5101626;28;19938;-89
2021/06/24 16:50:48;;;;;;;;;;;;;;;;;;5088487;28;19931;-89
2021/06/24 16:53:18;;;;;;;;;;;;;;;;;;5093096;28;20295;-89
2021/06/24 16:55:47;;;;;;;;;;;;;;;;;;5067280;28;19947;-89
2021/06/24 16:58:16;;;;;;;;;;;;;;;;;;5086915;28;19924;-89
2021/06/24 17:00:45;;;;;;;;;;;;;;;;;;5092957;28;19947;-88
2021/06/24 17:03:13;;;;;;;;;;;;;;;;;;5075487;28;19931;-89
2021/06/24 17:05:43;;;;;;;;;;;;;;;;;;5080358;28;19932;-89
2021/06/24 17:08:11;;;;;;;;;;;;;;;;;;5081836;28;19939;-87
2021/06/24 17:10:39;;;;;;;;;;;;;;;;;;5079887;28;19959;-90
2021/06/24 17:13:12;;;;;;;;;;;;;;;;;;5077939;28;19924;-91
2021/06/24 17:15:42;;;;;;;;;;;;;;;;;;5093868;28;19924;-90
2021/06/24 17:18:10;;;;;;;;;;;;;;;;;;5095555;28;19924;-90
2021/06/24 17:20:38;;;;;;;;;;;;;;;;;;5088357;28;19924;-92
2021/06/24 17:23:06;;;;;;;;;;;;;;;;;;5086298;28;19931;-90
2021/06/24 17:25:35;;;;;;;;;;;;;;;;;;5116722;27;19928;-91
2021/06/24 17:28:05;;;;;;;;;;;;;;;;;;5100822;28;19931;-91
2021/06/24 17:30:33;;;;;;;;;;;;;;;;;;5080832;28;19923;-91
2021/06/24 17:33:06;;;;;;;;;;;;;;;;;;5125814;27;19931;-90
2021/06/24 17:35:35;;;;;;;;;;;;;;;;;;5098949;28;19930;-88
2021/06/24 17:38:03;;;;;;;;;;;;;;;;;;5089609;28;19935;-91
2021/06/24 17:40:31;;;;;;;;;;;;;;;;;;5114649;27;19931;-90
2021/06/24 17:43:00;;;;;;;;;;;;;;;;;;5097142;28;19924;-90